Time;durP1;ratioP1;P1;durP2;ratioP2;P2;SDS_P1;SDS_P2;PMS_P1;PMS_P2;Temp;Humidity;BMP_temperature;BMP_pressure;BME280_temperature;BME280_humidity;BME280_pressure;Samples;Min_cycle;Max_cycle;Signal;HPM_P1;HPM_P2
2023/06/18 00:00:40;;;;;;;9.95;1.80;;;;;;;;;;5043476;28;20474;-42
2023/06/18 00:03:07;;;;;;;15.32;2.20;;;;;;;;;;5044701;28;20060;-43
2023/06/18 00:05:34;;;;;;;11.32;1.92;;;;;;;;;;5043292;28;20052;-39
2023/06/18 00:08:01;;;;;;;12.75;1.95;;;;;;;;;;5043734;28;20029;-38
2023/06/18 00:10:28;;;;;;;11.20;2.00;;;;;;;;;;5044835;28;20451;-37
2023/06/18 00:12:55;;;;;;;16.20;2.67;;;;;;;;;;5038944;28;20040;-39
2023/06/18 00:15:22;;;;;;;22.27;2.85;;;;;;;;;;5040704;28;20462;-38
2023/06/18 00:17:50;;;;;;;25.98;2.85;;;;;;;;;;5033356;28;20466;-38
2023/06/18 00:20:17;;;;;;;32.25;3.45;;;;;;;;;;5035946;28;20041;-38
2023/06/18 00:22:48;;;;;;;24.70;3.17;;;;;;;;;;5033914;28;20435;-40
2023/06/18 00:25:15;;;;;;;27.67;3.65;;;;;;;;;;5046090;28;20041;-42
2023/06/18 00:27:43;;;;;;;26.98;3.28;;;;;;;;;;5046486;28;20107;-40
2023/06/18 00:30:10;;;;;;;25.00;3.28;;;;;;;;;;5045196;28;20128;-40
2023/06/18 00:32:37;;;;;;;26.80;3.28;;;;;;;;;;5036519;28;20028;-38
2023/06/18 00:35:05;;;;;;;22.67;3.03;;;;;;;;;;5042039;28;20036;-38
2023/06/18 00:37:34;;;;;;;26.83;3.03;;;;;;;;;;5052227;28;20047;-40
2023/06/18 00:40:01;;;;;;;18.75;2.40;;;;;;;;;;5052421;28;20028;-40
2023/06/18 00:42:28;;;;;;;23.02;2.95;;;;;;;;;;5052090;28;20033;-38
2023/06/18 00:44:55;;;;;;;27.38;2.65;;;;;;;;;;5039557;28;20048;-39
2023/06/18 00:47:23;;;;;;;34.83;3.33;;;;;;;;;;5033472;28;20032;-40
2023/06/18 00:49:50;;;;;;;18.13;2.75;;;;;;;;;;5042314;28;20554;-38
2023/06/18 00:52:18;;;;;;;13.90;2.53;;;;;;;;;;5039021;28;20036;-40
2023/06/18 00:55:04;;;;;;;19.48;2.67;;;;;;;;;;5049570;28;20041;-38
2023/06/18 00:57:32;;;;;;;22.20;2.85;;;;;;;;;;5052090;28;20028;-40
2023/06/18 00:59:59;;;;;;;17.55;2.60;;;;;;;;;;5052109;28;20037;-40
2023/06/18 01:02:28;;;;;;;14.40;2.58;;;;;;;;;;5052392;28;20021;-38
2023/06/18 01:04:56;;;;;;;12.82;1.95;;;;;;;;;;5051703;28;20123;-39
2023/06/18 01:07:24;;;;;;;19.80;2.63;;;;;;;;;;5052352;28;20453;-38
2023/06/18 01:09:54;;;;;;;16.13;2.50;;;;;;;;;;5051987;28;20492;-39
2023/06/18 01:12:22;;;;;;;23.40;2.75;;;;;;;;;;5051907;28;20043;-38
2023/06/18 01:14:53;;;;;;;16.13;2.83;;;;;;;;;;5052099;28;20075;-38
2023/06/18 01:17:21;;;;;;;17.15;2.72;;;;;;;;;;5052383;28;20033;-38
2023/06/18 01:20:17;;;;;;;12.93;2.95;;;;;;;;;;5033840;28;20474;-40
2023/06/18 01:22:44;;;;;;;23.00;3.03;;;;;;;;;;5021736;28;20057;-40
2023/06/18 01:25:13;;;;;;;14.88;2.42;;;;;;;;;;5051525;28;20044;-40
2023/06/18 01:27:43;;;;;;;16.30;2.65;;;;;;;;;;5050642;28;20122;-41
2023/06/18 01:30:12;;;;;;;16.95;2.60;;;;;;;;;;5041755;28;20187;-43
2023/06/18 01:32:39;;;;;;;16.40;3.00;;;;;;;;;;5047734;28;20048;-41
2023/06/18 01:35:08;;;;;;;15.13;2.15;;;;;;;;;;5042143;28;20045;-41
2023/06/18 01:37:44;;;;;;;17.48;2.60;;;;;;;;;;5050798;28;20501;-41
2023/06/18 01:40:12;;;;;;;15.65;2.75;;;;;;;;;;5050936;28;20037;-41
2023/06/18 01:42:43;;;;;;;11.90;2.78;;;;;;;;;;5036654;28;20028;-42
2023/06/18 01:45:35;;;;;;;14.07;2.00;;;;;;;;;;5033791;28;20059;-41
2023/06/18 01:48:05;;;;;;;17.55;2.28;;;;;;;;;;5040945;28;20475;-42
2023/06/18 01:50:34;;;;;;;11.93;2.40;;;;;;;;;;5039041;28;20033;-41
2023/06/18 01:53:03;;;;;;;19.33;2.17;;;;;;;;;;5031366;28;20501;-41
2023/06/18 01:55:33;;;;;;;16.63;2.40;;;;;;;;;;5031277;28;20172;-41
2023/06/18 01:58:00;;;;;;;8.85;2.35;;;;;;;;;;5031361;28;20037;-42
2023/06/18 02:00:27;;;;;;;14.65;2.25;;;;;;;;;;5031235;28;20030;-41
2023/06/18 02:02:54;;;;;;;17.08;2.33;;;;;;;;;;5031308;28;20036;-41
2023/06/18 02:05:21;;;;;;;17.80;2.40;;;;;;;;;;5031143;28;20041;-41
2023/06/18 02:07:49;;;;;;;15.75;2.15;;;;;;;;;;5042675;28;20032;-41
2023/06/18 02:10:16;;;;;;;12.95;2.38;;;;;;;;;;5050696;28;20033;-41
2023/06/18 02:12:43;;;;;;;9.82;1.83;;;;;;;;;;5050820;28;20036;-42
2023/06/18 02:15:10;;;;;;;14.38;1.92;;;;;;;;;;5050985;28;20138;-42
2023/06/18 02:17:38;;;;;;;13.85;2.40;;;;;;;;;;5051104;28;20061;-41
2023/06/18 02:20:06;;;;;;;16.10;2.47;;;;;;;;;;5051232;28;20037;-42
2023/06/18 02:22:33;;;;;;;10.45;1.98;;;;;;;;;;5050708;28;20029;-41
2023/06/18 02:25:01;;;;;;;14.15;2.00;;;;;;;;;;5050651;28;20036;-42
2023/06/18 02:27:28;;;;;;;11.32;2.05;;;;;;;;;;5051091;28;20028;-42
2023/06/18 02:29:55;;;;;;;17.95;2.35;;;;;;;;;;5050844;28;20044;-41
2023/06/18 02:32:23;;;;;;;13.27;2.47;;;;;;;;;;5033045;28;20064;-42
2023/06/18 02:34:50;;;;;;;10.82;2.08;;;;;;;;;;5032575;28;20037;-41
2023/06/18 02:37:17;;;;;;;13.90;2.42;;;;;;;;;;5050799;28;20039;-41
2023/06/18 02:39:45;;;;;;;11.93;1.80;;;;;;;;;;5051079;28;20067;-42
2023/06/18 02:42:12;;;;;;;10.63;1.83;;;;;;;;;;5054117;28;20036;-40
2023/06/18 02:44:41;;;;;;;8.18;1.73;;;;;;;;;;5054693;28;20033;-41
2023/06/18 02:47:09;;;;;;;12.75;2.22;;;;;;;;;;5054876;28;20051;-41
2023/06/18 02:49:36;;;;;;;7.78;1.75;;;;;;;;;;5054949;28;20124;-41
2023/06/18 02:52:03;;;;;;;13.20;2.10;;;;;;;;;;5054680;28;20510;-41
2023/06/18 02:54:30;;;;;;;10.98;2.30;;;;;;;;;;5046570;28;20464;-41
2023/06/18 02:56:58;;;;;;;8.60;1.70;;;;;;;;;;5033345;28;20394;-41
2023/06/18 02:59:25;;;;;;;9.73;1.67;;;;;;;;;;5034875;28;20029;-41
2023/06/18 03:01:53;;;;;;;9.90;1.85;;;;;;;;;;5034602;28;20037;-41
2023/06/18 03:04:20;;;;;;;12.05;2.30;;;;;;;;;;5034443;28;20049;-41
2023/06/18 03:06:47;;;;;;;9.55;1.70;;;;;;;;;;5034347;28;20396;-41
2023/06/18 03:09:14;;;;;;;10.82;1.88;;;;;;;;;;5034580;28;20037;-41
2023/06/18 03:11:41;;;;;;;8.98;1.67;;;;;;;;;;5046247;28;20180;-40
2023/06/18 03:14:09;;;;;;;7.70;1.60;;;;;;;;;;5034476;28;20116;-42
2023/06/18 03:16:36;;;;;;;6.43;1.80;;;;;;;;;;5034219;28;20383;-40
2023/06/18 03:19:03;;;;;;;8.32;1.80;;;;;;;;;;5047583;28;20036;-41
2023/06/18 03:21:30;;;;;;;9.63;1.90;;;;;;;;;;5034518;28;20036;-41
2023/06/18 03:23:57;;;;;;;6.75;1.42;;;;;;;;;;5043648;28;20033;-42
2023/06/18 03:26:24;;;;;;;7.07;1.40;;;;;;;;;;5037720;28;20018;-41
2023/06/18 03:28:51;;;;;;;10.02;1.92;;;;;;;;;;5034111;28;20037;-40
2023/06/18 03:31:18;;;;;;;7.75;1.58;;;;;;;;;;5032861;28;20033;-41
2023/06/18 03:33:45;;;;;;;6.85;1.63;;;;;;;;;;5034185;28;20055;-42
2023/06/18 03:36:17;;;;;;;5.95;1.00;;;;;;;;;;5033935;28;20033;-41
2023/06/18 03:38:45;;;;;;;7.53;1.40;;;;;;;;;;5052650;28;20041;-40
2023/06/18 03:41:14;;;;;;;4.88;1.20;;;;;;;;;;5053663;28;20116;-42
2023/06/18 03:43:41;;;;;;;8.30;1.25;;;;;;;;;;5050084;28;20042;-41
2023/06/18 03:46:08;;;;;;;8.75;1.60;;;;;;;;;;5033875;28;20068;-41
2023/06/18 03:48:36;;;;;;;7.90;1.58;;;;;;;;;;5033753;28;20052;-41
2023/06/18 03:51:04;;;;;;;6.25;1.30;;;;;;;;;;5033451;28;20037;-40
2023/06/18 03:53:36;;;;;;;9.75;1.30;;;;;;;;;;5032994;28;20040;-42
2023/06/18 03:56:08;;;;;;;6.57;1.40;;;;;;;;;;5033530;28;20067;-43
2023/06/18 03:58:35;;;;;;;7.67;1.50;;;;;;;;;;5033639;28;20030;-41
2023/06/18 04:01:02;;;;;;;8.20;1.52;;;;;;;;;;5033466;28;20037;-40
2023/06/18 04:03:29;;;;;;;5.63;1.20;;;;;;;;;;5033385;28;20041;-41
2023/06/18 04:05:57;;;;;;;10.65;1.60;;;;;;;;;;5033216;28;20029;-41
2023/06/18 04:08:24;;;;;;;5.88;1.30;;;;;;;;;;5033468;28;20041;-40
2023/06/18 04:10:51;;;;;;;5.18;1.45;;;;;;;;;;5033251;28;20037;-41
2023/06/18 04:13:18;;;;;;;6.22;1.48;;;;;;;;;;5033501;28;20025;-42
2023/06/18 04:15:46;;;;;;;6.97;1.83;;;;;;;;;;5033091;28;20030;-41
2023/06/18 04:18:13;;;;;;;6.82;1.63;;;;;;;;;;5031957;28;20036;-41
2023/06/18 04:20:40;;;;;;;3.83;1.17;;;;;;;;;;5032944;28;20057;-41
2023/06/18 04:23:07;;;;;;;8.25;1.38;;;;;;;;;;5034418;28;20033;-41
2023/06/18 04:25:34;;;;;;;6.95;1.45;;;;;;;;;;5046595;28;20064;-41
2023/06/18 04:28:01;;;;;;;4.75;1.10;;;;;;;;;;5047305;28;20108;-41
2023/06/18 04:30:28;;;;;;;4.88;1.17;;;;;;;;;;5051959;28;20123;-41
2023/06/18 04:32:56;;;;;;;5.75;1.20;;;;;;;;;;5053201;28;20204;-41
2023/06/18 04:35:23;;;;;;;3.72;1.08;;;;;;;;;;5052908;28;20025;-41
2023/06/18 04:37:50;;;;;;;5.15;1.50;;;;;;;;;;5052175;28;20037;-41
2023/06/18 04:40:18;;;;;;;5.57;1.63;;;;;;;;;;5053138;28;20059;-41
2023/06/18 04:42:45;;;;;;;3.90;0.98;;;;;;;;;;5052996;28;20072;-41
2023/06/18 04:45:12;;;;;;;5.45;1.02;;;;;;;;;;5052838;28;20037;-41
2023/06/18 04:47:40;;;;;;;5.47;1.10;;;;;;;;;;5053067;28;20550;-41
2023/06/18 04:50:08;;;;;;;6.57;1.00;;;;;;;;;;5052856;28;20044;-41
2023/06/18 04:52:35;;;;;;;7.75;1.73;;;;;;;;;;5052107;28;20040;-41
2023/06/18 04:55:02;;;;;;;3.88;0.93;;;;;;;;;;5052854;28;20060;-41
2023/06/18 04:57:30;;;;;;;4.05;0.82;;;;;;;;;;5052880;28;20025;-41
2023/06/18 04:59:57;;;;;;;6.80;1.00;;;;;;;;;;5052722;28;20490;-41
2023/06/18 05:02:24;;;;;;;6.40;1.25;;;;;;;;;;5052747;28;20037;-41
2023/06/18 05:04:52;;;;;;;5.00;1.02;;;;;;;;;;5051609;28;20037;-41
2023/06/18 05:07:19;;;;;;;5.07;1.23;;;;;;;;;;5052568;28;20035;-41
2023/06/18 05:09:46;;;;;;;5.13;1.17;;;;;;;;;;5052711;28;20031;-41
2023/06/18 05:12:13;;;;;;;2.17;0.75;;;;;;;;;;5052625;28;20579;-42
2023/06/18 05:14:40;;;;;;;3.53;1.02;;;;;;;;;;5052465;28;20033;-41
2023/06/18 05:17:07;;;;;;;4.68;1.42;;;;;;;;;;5052376;28;20075;-41
2023/06/18 05:19:34;;;;;;;6.20;1.25;;;;;;;;;;5052400;28;20025;-41
2023/06/18 05:22:01;;;;;;;3.13;0.98;;;;;;;;;;5052360;28;20779;-41
2023/06/18 05:24:28;;;;;;;4.90;1.35;;;;;;;;;;5052234;28;20076;-41
2023/06/18 05:26:55;;;;;;;4.72;1.50;;;;;;;;;;5052227;28;20117;-40
2023/06/18 05:29:22;;;;;;;4.40;1.10;;;;;;;;;;5052162;28;20044;-42
2023/06/18 05:31:49;;;;;;;4.35;1.05;;;;;;;;;;5052251;28;20032;-40
2023/06/18 05:34:16;;;;;;;3.95;1.17;;;;;;;;;;5052112;28;20436;-40
2023/06/18 05:36:43;;;;;;;1.92;0.90;;;;;;;;;;5052253;28;20414;-41
2023/06/18 05:39:10;;;;;;;5.80;1.30;;;;;;;;;;5052145;28;20033;-41
2023/06/18 05:41:37;;;;;;;3.03;1.02;;;;;;;;;;5052145;28;20032;-40
2023/06/18 05:44:04;;;;;;;3.90;0.80;;;;;;;;;;5051820;28;20037;-41
2023/06/18 05:46:31;;;;;;;4.82;0.85;;;;;;;;;;5052031;28;20032;-40
2023/06/18 05:48:58;;;;;;;6.55;1.20;;;;;;;;;;5051924;28;20036;-41
2023/06/18 05:51:25;;;;;;;2.85;0.90;;;;;;;;;;5051947;28;20040;-40
2023/06/18 05:53:52;;;;;;;3.53;0.90;;;;;;;;;;5051691;28;20184;-41
2023/06/18 05:56:19;;;;;;;2.60;0.80;;;;;;;;;;5051808;28;20017;-40
2023/06/18 05:58:46;;;;;;;4.07;1.05;;;;;;;;;;5052024;28;20025;-41
2023/06/18 06:01:14;;;;;;;2.40;0.80;;;;;;;;;;5051803;28;20131;-42
2023/06/18 06:03:41;;;;;;;2.20;0.80;;;;;;;;;;5051346;28;20467;-41
2023/06/18 06:06:08;;;;;;;3.80;0.80;;;;;;;;;;5051792;28;20364;-41
2023/06/18 06:08:35;;;;;;;4.25;1.08;;;;;;;;;;5051694;28;20036;-41
2023/06/18 06:11:02;;;;;;;3.25;0.90;;;;;;;;;;5051484;28;20404;-41
2023/06/18 06:13:29;;;;;;;2.78;1.00;;;;;;;;;;5051441;28;20079;-42
2023/06/18 06:15:56;;;;;;;2.05;0.60;;;;;;;;;;5051445;28;20521;-41
2023/06/18 06:18:23;;;;;;;3.08;1.05;;;;;;;;;;5051602;28;20021;-42
2023/06/18 06:20:50;;;;;;;1.55;0.90;;;;;;;;;;5051583;28;20029;-41
2023/06/18 06:23:16;;;;;;;3.63;0.98;;;;;;;;;;5051316;28;20017;-41
2023/06/18 06:25:43;;;;;;;4.28;0.82;;;;;;;;;;5051556;28;20383;-42
2023/06/18 06:28:11;;;;;;;1.77;0.70;;;;;;;;;;5051484;28;20033;-41
2023/06/18 06:30:38;;;;;;;3.13;0.98;;;;;;;;;;5051330;28;20529;-41
2023/06/18 06:33:05;;;;;;;1.50;0.68;;;;;;;;;;5051498;28;20478;-41
2023/06/18 06:35:32;;;;;;;1.48;0.60;;;;;;;;;;5051251;28;20395;-41
2023/06/18 06:37:59;;;;;;;2.88;0.95;;;;;;;;;;5051459;28;20025;-41
2023/06/18 06:40:26;;;;;;;4.20;1.00;;;;;;;;;;5051444;28;20048;-41
2023/06/18 06:42:53;;;;;;;1.50;0.60;;;;;;;;;;5051225;28;20029;-41
2023/06/18 06:45:20;;;;;;;2.33;0.80;;;;;;;;;;5051214;28;20140;-41
2023/06/18 06:47:48;;;;;;;3.83;1.20;;;;;;;;;;5051252;28;20036;-41
2023/06/18 06:50:15;;;;;;;3.45;0.98;;;;;;;;;;5051231;28;20387;-41
2023/06/18 06:52:42;;;;;;;1.80;0.80;;;;;;;;;;5051270;28;20103;-41
2023/06/18 06:55:09;;;;;;;2.45;1.00;;;;;;;;;;5051209;28;20039;-40
2023/06/18 06:57:36;;;;;;;2.05;0.70;;;;;;;;;;5051244;28;20029;-40
2023/06/18 07:00:06;;;;;;;1.98;0.90;;;;;;;;;;5051232;28;20044;-41
2023/06/18 07:02:36;;;;;;;1.90;0.90;;;;;;;;;;5051000;28;20386;-41
2023/06/18 07:05:04;;;;;;;1.83;0.60;;;;;;;;;;5050996;28;20045;-41
2023/06/18 07:07:31;;;;;;;1.58;0.90;;;;;;;;;;5051170;28;20037;-41
2023/06/18 07:09:58;;;;;;;2.78;0.95;;;;;;;;;;5033207;28;20039;-41
2023/06/18 07:12:25;;;;;;;2.08;0.80;;;;;;;;;;5051155;28;20487;-40
2023/06/18 07:14:52;;;;;;;1.58;0.68;;;;;;;;;;5050939;28;20079;-41
2023/06/18 07:17:19;;;;;;;1.75;0.63;;;;;;;;;;5051067;28;20025;-40
2023/06/18 07:19:46;;;;;;;1.75;0.88;;;;;;;;;;5051038;28;20033;-41
2023/06/18 07:22:13;;;;;;;1.15;0.60;;;;;;;;;;5050894;28;20096;-40
2023/06/18 07:24:40;;;;;;;4.13;1.20;;;;;;;;;;5032856;28;20114;-40
2023/06/18 07:27:07;;;;;;;1.83;0.70;;;;;;;;;;5052108;28;20033;-40
2023/06/18 07:29:35;;;;;;;2.15;0.90;;;;;;;;;;5054207;28;20380;-40
2023/06/18 07:32:02;;;;;;;1.38;0.80;;;;;;;;;;5054551;28;20033;-41
2023/06/18 07:34:29;;;;;;;3.22;0.90;;;;;;;;;;5054238;28;20090;-41
2023/06/18 07:36:56;;;;;;;9.27;1.48;;;;;;;;;;5054572;28;20498;-42
2023/06/18 07:39:23;;;;;;;1.55;0.73;;;;;;;;;;5054387;28;20021;-41
2023/06/18 07:41:50;;;;;;;2.97;1.15;;;;;;;;;;5054471;28;20036;-40
2023/06/18 07:44:17;;;;;;;1.92;0.73;;;;;;;;;;5054025;28;20048;-41
2023/06/18 07:46:44;;;;;;;2.20;0.95;;;;;;;;;;5054376;28;20021;-40
2023/06/18 07:49:12;;;;;;;2.65;0.80;;;;;;;;;;5054376;28;20061;-42
2023/06/18 07:51:39;;;;;;;1.67;0.70;;;;;;;;;;5048433;28;20025;-41
2023/06/18 07:54:06;;;;;;;1.30;0.60;;;;;;;;;;5034116;28;20044;-42
2023/06/18 07:56:33;;;;;;;3.20;1.15;;;;;;;;;;5034316;28;20391;-41
2023/06/18 07:59:00;;;;;;;2.00;0.80;;;;;;;;;;5016477;28;20497;-41
2023/06/18 08:01:27;;;;;;;2.35;0.80;;;;;;;;;;5034193;28;20025;-42
2023/06/18 08:03:54;;;;;;;1.27;0.68;;;;;;;;;;5033892;28;20438;-41
2023/06/18 08:06:21;;;;;;;2.50;0.88;;;;;;;;;;5033923;28;20786;-41
2023/06/18 08:08:48;;;;;;;1.92;0.80;;;;;;;;;;5034052;28;20369;-43
2023/06/18 08:11:17;;;;;;;1.63;0.60;;;;;;;;;;5034064;28;20021;-41
2023/06/18 08:13:44;;;;;;;2.03;0.80;;;;;;;;;;5033692;28;20045;-41
2023/06/18 08:16:11;;;;;;;1.95;0.60;;;;;;;;;;5033807;28;20018;-41
2023/06/18 08:18:38;;;;;;;1.65;0.60;;;;;;;;;;5033767;28;20389;-41
2023/06/18 08:21:05;;;;;;;1.27;0.63;;;;;;;;;;5033857;28;20509;-41
2023/06/18 08:23:32;;;;;;;2.90;0.60;;;;;;;;;;5033545;28;20045;-41
2023/06/18 08:25:59;;;;;;;1.77;0.63;;;;;;;;;;5033689;28;20108;-41
2023/06/18 08:28:26;;;;;;;2.45;0.65;;;;;;;;;;5033754;28;20026;-41
2023/06/18 08:30:53;;;;;;;1.60;0.55;;;;;;;;;;5033426;28;20100;-41
2023/06/18 08:33:20;;;;;;;2.67;0.80;;;;;;;;;;5033537;28;20104;-41
2023/06/18 08:35:47;;;;;;;2.05;0.70;;;;;;;;;;5033505;28;20030;-41
2023/06/18 08:38:14;;;;;;;2.10;0.60;;;;;;;;;;5052832;28;20064;-40
2023/06/18 08:40:51;;;;;;;0.90;0.60;;;;;;;;;;5053381;28;20032;-40
2023/06/18 08:43:26;;;;;;;1.08;0.60;;;;;;;;;;5052918;28;20087;-40
2023/06/18 08:45:54;;;;;;;1.27;0.65;;;;;;;;;;5052999;28;20037;-41
2023/06/18 08:48:25;;;;;;;1.52;0.60;;;;;;;;;;5053285;28;20033;-41
2023/06/18 08:50:54;;;;;;;1.90;0.60;;;;;;;;;;5053197;28;20554;-40
2023/06/18 08:53:26;;;;;;;1.48;0.70;;;;;;;;;;5053097;28;20096;-40
2023/06/18 08:55:53;;;;;;;2.97;0.60;;;;;;;;;;5036651;28;20368;-41
2023/06/18 08:58:22;;;;;;;1.48;0.50;;;;;;;;;;5015305;28;20071;-40
2023/06/18 09:00:51;;;;;;;1.02;0.60;;;;;;;;;;5033156;28;20404;-40
2023/06/18 09:03:18;;;;;;;2.40;0.70;;;;;;;;;;5032820;28;20035;-40
2023/06/18 09:05:45;;;;;;;1.80;0.80;;;;;;;;;;5033023;28;20022;-40
2023/06/18 09:08:12;;;;;;;1.17;0.60;;;;;;;;;;5032942;28;20035;-40
2023/06/18 09:10:39;;;;;;;1.35;0.50;;;;;;;;;;5032872;28;20029;-40
2023/06/18 09:13:06;;;;;;;1.92;0.70;;;;;;;;;;5032768;28;20045;-41
2023/06/18 09:15:33;;;;;;;1.58;0.70;;;;;;;;;;5032846;28;20029;-40
2023/06/18 09:18:00;;;;;;;1.55;0.73;;;;;;;;;;5032586;28;20082;-43
2023/06/18 09:20:27;;;;;;;1.20;0.50;;;;;;;;;;5032627;28;20033;-41
2023/06/18 09:22:54;;;;;;;1.02;0.60;;;;;;;;;;5032348;28;20033;-41
2023/06/18 09:25:22;;;;;;;1.48;0.68;;;;;;;;;;5032552;28;20056;-41
2023/06/18 09:27:50;;;;;;;1.17;0.70;;;;;;;;;;5032548;28;20029;-41
2023/06/18 09:30:26;;;;;;;2.03;0.60;;;;;;;;;;5032331;28;20048;-40
2023/06/18 09:32:57;;;;;;;1.10;0.60;;;;;;;;;;5032364;28;20040;-41
2023/06/18 09:35:24;;;;;;;2.25;0.60;;;;;;;;;;5032234;28;20037;-40
2023/06/18 09:37:51;;;;;;;2.28;0.60;;;;;;;;;;5032403;28;20056;-41
2023/06/18 09:40:19;;;;;;;1.63;0.68;;;;;;;;;;5032294;28;20019;-40
2023/06/18 09:42:50;;;;;;;1.13;0.47;;;;;;;;;;5032054;28;20061;-41
2023/06/18 09:45:17;;;;;;;0.35;0.32;;;;;;;;;;5031981;28;20550;-41
2023/06/18 09:47:48;;;;;;;1.75;0.63;;;;;;;;;;5032204;28;20026;-41
2023/06/18 09:50:15;;;;;;;1.23;0.50;;;;;;;;;;5031699;28;20509;-41
2023/06/18 09:52:44;;;;;;;2.35;0.65;;;;;;;;;;5032176;28;20041;-42
2023/06/18 09:55:33;;;;;;;0.95;0.70;;;;;;;;;;5031836;28;20112;-41
2023/06/18 09:58:00;;;;;;;1.02;0.55;;;;;;;;;;5032079;28;20056;-41
2023/06/18 10:00:28;;;;;;;1.08;0.50;;;;;;;;;;5032069;28;20029;-44
2023/06/18 10:03:04;;;;;;;0.70;0.50;;;;;;;;;;5014120;28;20454;-41
2023/06/18 10:05:31;;;;;;;0.98;0.52;;;;;;;;;;5031871;28;20037;-41
2023/06/18 10:07:59;;;;;;;1.35;0.70;;;;;;;;;;5031885;28;20127;-41
2023/06/18 10:10:26;;;;;;;1.83;0.60;;;;;;;;;;5031971;28;20080;-41
2023/06/18 10:12:54;;;;;;;1.23;0.50;;;;;;;;;;5031888;28;20388;-41
2023/06/18 10:15:25;;;;;;;1.23;0.60;;;;;;;;;;5031961;28;20119;-41
2023/06/18 10:17:53;;;;;;;4.10;0.77;;;;;;;;;;5031541;28;20120;-41
2023/06/18 10:20:22;;;;;;;1.15;0.57;;;;;;;;;;5031723;28;20795;-41
2023/06/18 10:22:50;;;;;;;1.27;0.60;;;;;;;;;;5031756;28;20029;-42
2023/06/18 10:25:17;;;;;;;1.48;0.63;;;;;;;;;;5013912;28;20034;-41
2023/06/18 10:27:44;;;;;;;1.00;0.60;;;;;;;;;;5031685;28;20021;-41
2023/06/18 10:30:12;;;;;;;1.92;0.57;;;;;;;;;;5031510;28;20623;-42
2023/06/18 10:32:40;;;;;;;1.52;0.60;;;;;;;;;;5031575;28;20025;-41
2023/06/18 10:35:12;;;;;;;0.98;0.50;;;;;;;;;;5013796;28;20067;-43
2023/06/18 10:37:40;;;;;;;1.33;0.60;;;;;;;;;;5031632;28;20085;-41
2023/06/18 10:40:07;;;;;;;1.05;0.50;;;;;;;;;;5031616;28;20079;-41
2023/06/18 10:42:35;;;;;;;1.30;0.50;;;;;;;;;;5031471;28;20071;-41
2023/06/18 10:45:12;;;;;;;1.15;0.60;;;;;;;;;;5031329;28;20034;-41
2023/06/18 10:47:40;;;;;;;1.35;0.50;;;;;;;;;;5031558;28;20116;-41
2023/06/18 10:50:07;;;;;;;0.90;0.50;;;;;;;;;;5031373;28;20114;-41
2023/06/18 10:52:37;;;;;;;1.48;0.60;;;;;;;;;;5031490;28;20026;-41
2023/06/18 10:55:08;;;;;;;0.90;0.40;;;;;;;;;;5031307;28;20059;-41
2023/06/18 10:57:37;;;;;;;1.67;0.57;;;;;;;;;;5031348;28;20433;-42
2023/06/18 11:00:17;;;;;;;1.38;0.50;;;;;;;;;;5031267;28;20069;-40
2023/06/18 11:02:46;;;;;;;1.30;0.70;;;;;;;;;;5033567;28;20124;-41
2023/06/18 11:05:36;;;;;;;0.88;0.50;;;;;;;;;;5035124;28;20038;-41
2023/06/18 11:08:04;;;;;;;0.90;0.50;;;;;;;;;;5025215;28;20061;-41
2023/06/18 11:10:35;;;;;;;1.00;0.60;;;;;;;;;;5035093;28;20111;-41
2023/06/18 11:13:06;;;;;;;1.10;0.43;;;;;;;;;;5034941;28;20030;-41
2023/06/18 11:15:37;;;;;;;1.27;0.50;;;;;;;;;;5035077;28;20026;-41
2023/06/18 11:18:04;;;;;;;0.80;0.40;;;;;;;;;;5034992;28;20383;-41
2023/06/18 11:20:32;;;;;;;0.82;0.45;;;;;;;;;;5034933;28;20117;-41
2023/06/18 11:23:00;;;;;;;0.95;0.43;;;;;;;;;;5034861;28;20495;-44
2023/06/18 11:25:29;;;;;;;1.40;0.50;;;;;;;;;;5034860;28;20083;-41
2023/06/18 11:28:00;;;;;;;1.40;0.73;;;;;;;;;;5034891;28;20033;-42
2023/06/18 11:30:27;;;;;;;1.70;0.55;;;;;;;;;;5034493;28;20056;-41
2023/06/18 11:32:54;;;;;;;1.15;0.43;;;;;;;;;;5034680;28;20031;-41
2023/06/18 11:35:21;;;;;;;1.20;0.50;;;;;;;;;;5034717;28;20116;-41
2023/06/18 11:37:48;;;;;;;1.92;0.70;;;;;;;;;;5034675;28;20080;-41
2023/06/18 11:40:15;;;;;;;0.98;0.60;;;;;;;;;;5034539;28;20026;-41
2023/06/18 11:42:49;;;;;;;1.48;0.50;;;;;;;;;;5034453;28;20022;-49
2023/06/18 11:45:16;;;;;;;1.08;0.50;;;;;;;;;;5034493;28;20055;-41
2023/06/18 11:47:50;;;;;;;1.50;0.50;;;;;;;;;;5034406;28;20116;-41
2023/06/18 11:50:19;;;;;;;0.82;0.50;;;;;;;;;;5034459;28;20034;-41
2023/06/18 11:52:46;;;;;;;1.30;0.45;;;;;;;;;;5034157;28;20108;-41
2023/06/18 11:55:14;;;;;;;1.38;0.60;;;;;;;;;;5034351;28;20025;-41
2023/06/18 11:57:41;;;;;;;1.08;0.43;;;;;;;;;;5034097;28;20037;-41
2023/06/18 12:00:08;;;;;;;0.73;0.40;;;;;;;;;;5034233;28;20396;-41
2023/06/18 12:02:38;;;;;;;1.65;0.50;;;;;;;;;;5034171;28;20037;-42
2023/06/18 12:05:06;;;;;;;0.50;0.30;;;;;;;;;;5033955;28;20491;-40
2023/06/18 12:07:33;;;;;;;1.25;0.43;;;;;;;;;;5034176;28;20041;-41
2023/06/18 12:10:05;;;;;;;0.68;0.40;;;;;;;;;;5034073;28;20434;-41
2023/06/18 12:12:32;;;;;;;;;;;;;;;;;;5033984;28;20026;-41
2023/06/18 12:15:02;;;;;;;2.05;0.65;;;;;;;;;;5033916;28;19913;-41
2023/06/18 12:17:43;;;;;;;0.75;0.50;;;;;;;;;;5038969;28;20036;-40
2023/06/18 12:20:11;;;;;;;1.17;0.50;;;;;;;;;;5050108;28;20044;-40
2023/06/18 12:22:39;;;;;;;0.52;0.40;;;;;;;;;;5042605;28;20020;-41
2023/06/18 12:25:07;;;;;;;2.80;0.70;;;;;;;;;;5043876;28;20049;-41
2023/06/18 12:27:34;;;;;;;1.55;0.55;;;;;;;;;;5042688;28;20033;-42
2023/06/18 12:30:02;;;;;;;0.75;0.47;;;;;;;;;;5041867;28;20048;-42
2023/06/18 12:32:29;;;;;;;1.33;0.60;;;;;;;;;;5050176;28;20032;-39
2023/06/18 12:34:56;;;;;;;1.40;0.55;;;;;;;;;;5034904;28;20033;-40
2023/06/18 12:37:42;;;;;;;1.15;0.60;;;;;;;;;;5052892;28;20116;-41
2023/06/18 12:40:11;;;;;;;1.85;0.60;;;;;;;;;;5049636;28;20025;-40
2023/06/18 12:42:38;;;;;;;3.55;0.70;;;;;;;;;;5050926;28;20021;-41
2023/06/18 12:45:05;;;;;;;4.05;0.70;;;;;;;;;;5052940;28;20029;-41
2023/06/18 12:47:32;;;;;;;3.88;0.60;;;;;;;;;;5053177;28;20025;-43
2023/06/18 12:49:59;;;;;;;5.20;0.70;;;;;;;;;;5053091;28;20029;-41
2023/06/18 12:52:27;;;;;;;3.45;0.60;;;;;;;;;;5052818;28;20461;-41
2023/06/18 12:54:59;;;;;;;1.88;0.52;;;;;;;;;;5052927;28;20029;-43
2023/06/18 12:57:29;;;;;;;8.50;0.70;;;;;;;;;;5052955;28;20067;-41
2023/06/18 12:59:56;;;;;;;4.35;0.80;;;;;;;;;;5052883;28;20455;-41
2023/06/18 13:02:22;;;;;;;3.00;0.70;;;;;;;;;;5052914;28;20035;-41
2023/06/18 13:04:50;;;;;;;7.72;0.70;;;;;;;;;;5051839;28;20090;-41
2023/06/18 13:07:17;;;;;;;4.07;0.73;;;;;;;;;;5052232;28;20032;-41
2023/06/18 13:09:44;;;;;;;2.92;0.75;;;;;;;;;;5052196;28;20029;-40
2023/06/18 13:12:12;;;;;;;5.30;0.68;;;;;;;;;;5052318;28;20033;-41
2023/06/18 13:14:39;;;;;;;2.42;0.70;;;;;;;;;;5051364;28;20411;-41
2023/06/18 13:17:06;;;;;;;1.52;0.63;;;;;;;;;;5049512;28;20021;-41
2023/06/18 13:19:33;;;;;;;2.65;0.55;;;;;;;;;;5040809;28;20175;-41
2023/06/18 13:22:01;;;;;;;3.67;0.57;;;;;;;;;;5051491;28;20040;-41
2023/06/18 13:24:27;;;;;;;2.85;0.60;;;;;;;;;;5040617;28;20033;-41
2023/06/18 13:26:54;;;;;;;4.90;0.60;;;;;;;;;;5048367;28;20024;-41
2023/06/18 13:29:24;;;;;;;7.28;0.90;;;;;;;;;;5045467;28;20045;-40
2023/06/18 13:31:51;;;;;;;4.65;0.98;;;;;;;;;;5044791;28;20505;-40
2023/06/18 13:34:18;;;;;;;2.08;0.73;;;;;;;;;;5032188;28;20032;-41
2023/06/18 13:36:46;;;;;;;8.68;1.27;;;;;;;;;;5031971;28;20025;-41
2023/06/18 13:39:13;;;;;;;2.58;0.85;;;;;;;;;;5038242;28;20100;-40
2023/06/18 13:41:40;;;;;;;10.43;1.20;;;;;;;;;;5031723;28;20698;-42
2023/06/18 13:44:08;;;;;;;10.65;1.33;;;;;;;;;;5031341;28;20033;-40
2023/06/18 13:46:35;;;;;;;8.45;1.00;;;;;;;;;;5035924;28;20021;-40
2023/06/18 13:49:03;;;;;;;7.88;1.05;;;;;;;;;;5051730;28;20521;-41
2023/06/18 13:51:30;;;;;;;10.30;1.60;;;;;;;;;;5051004;28;20083;-41
2023/06/18 13:53:58;;;;;;;20.13;2.72;;;;;;;;;;5051812;28;20055;-41
2023/06/18 13:56:27;;;;;;;19.10;1.95;;;;;;;;;;5051589;28;20040;-41
2023/06/18 13:58:54;;;;;;;19.05;2.35;;;;;;;;;;5051647;28;20041;-41
2023/06/18 14:01:21;;;;;;;19.20;2.25;;;;;;;;;;5041818;28;20025;-39
2023/06/18 14:03:48;;;;;;;14.25;2.00;;;;;;;;;;5031098;28;20045;-41
2023/06/18 14:06:15;;;;;;;19.02;2.15;;;;;;;;;;5034980;28;20407;-41
2023/06/18 14:08:42;;;;;;;17.38;2.30;;;;;;;;;;5041107;28;20037;-41
2023/06/18 14:11:12;;;;;;;12.80;1.92;;;;;;;;;;5049146;28;20502;-41
2023/06/18 14:13:39;;;;;;;11.82;1.63;;;;;;;;;;5051597;28;20029;-40
2023/06/18 14:16:08;;;;;;;19.63;2.10;;;;;;;;;;5051651;28;20589;-41
2023/06/18 14:18:35;;;;;;;19.08;1.85;;;;;;;;;;5048748;28;20376;-42
2023/06/18 14:21:03;;;;;;;14.70;1.90;;;;;;;;;;5030920;28;20029;-39
2023/06/18 14:23:31;;;;;;;18.80;1.92;;;;;;;;;;5035591;28;20037;-40
2023/06/18 14:25:58;;;;;;;9.55;1.35;;;;;;;;;;5031391;28;20112;-41
2023/06/18 14:28:25;;;;;;;13.85;1.92;;;;;;;;;;5031363;28;20124;-40
2023/06/18 14:30:52;;;;;;;13.18;1.77;;;;;;;;;;5031377;28;20397;-41
2023/06/18 14:33:19;;;;;;;13.02;1.65;;;;;;;;;;5031563;28;20429;-41
2023/06/18 14:35:47;;;;;;;11.65;1.88;;;;;;;;;;5033134;28;20033;-41
2023/06/18 14:38:14;;;;;;;10.40;1.60;;;;;;;;;;5038264;28;20018;-40
2023/06/18 14:40:41;;;;;;;11.32;1.50;;;;;;;;;;5038272;28;20029;-40
2023/06/18 14:43:08;;;;;;;13.73;1.75;;;;;;;;;;5038112;28;20598;-40
2023/06/18 14:45:35;;;;;;;7.78;1.48;;;;;;;;;;5038120;28;20037;-41